Time;durP1;ratioP1;P1;durP2;ratioP2;P2;SDS_P1;SDS_P2;PMS_P1;PMS_P2;Temp;Humidity;BMP_temperature;BMP_pressure;BME280_temperature;BME280_humidity;BME280_pressure;Samples;Min_cycle;Max_cycle;Signal;HPM_P1;HPM_P2
2023/09/20 00:01:03;;;;;;;4.13;1.35;;;11.90;99.90;;;;;;4969588;28;20125;-80
2023/09/20 00:03:29;;;;;;;2.97;1.40;;;11.90;99.90;;;;;;4968011;28;20475;-80
2023/09/20 00:05:56;;;;;;;1.88;1.60;;;11.90;99.90;;;;;;4938028;28;20381;-80
2023/09/20 00:08:21;;;;;;;2.15;1.33;;;11.90;99.90;;;;;;4953567;28;20392;-80
2023/09/20 00:10:47;;;;;;;2.70;1.48;;;11.90;99.90;;;;;;4971160;28;20031;-80
2023/09/20 00:13:13;;;;;;;4.30;1.65;;;11.90;99.90;;;;;;4953784;28;20050;-81
2023/09/20 00:15:42;;;;;;;2.58;1.80;;;11.90;99.90;;;;;;4970719;28;20118;-80
2023/09/20 00:18:09;;;;;;;1.58;1.42;;;11.90;99.90;;;;;;4955432;28;20039;-81
2023/09/20 00:20:36;;;;;;;2.58;1.40;;;11.90;99.90;;;;;;4972151;28;20029;-82
2023/09/20 00:23:03;;;;;;;3.75;1.98;;;11.90;99.90;;;;;;4971797;28;20031;-82
2023/09/20 00:25:29;;;;;;;2.22;1.80;;;11.90;99.90;;;;;;4969936;28;20041;-82
2023/09/20 00:27:55;;;;;;;2.65;1.60;;;12.00;99.90;;;;;;4971214;28;20035;-81
2023/09/20 00:30:21;;;;;;;3.88;1.65;;;12.00;99.90;;;;;;4970980;28;20119;-82
2023/09/20 00:32:47;;;;;;;2.35;1.50;;;12.00;99.90;;;;;;4963073;28;20038;-81
2023/09/20 00:35:16;;;;;;;1.85;1.55;;;12.00;99.90;;;;;;4966346;28;20122;-81
2023/09/20 00:37:46;;;;;;;3.78;1.55;;;12.00;99.90;;;;;;4953691;28;20034;-81
2023/09/20 00:40:18;;;;;;;1.88;1.50;;;12.00;99.90;;;;;;4955354;28;20126;-81
2023/09/20 00:42:46;;;;;;;1.85;1.42;;;12.00;99.90;;;;;;4964740;28;20051;-81
2023/09/20 00:45:15;;;;;;;1.55;1.40;;;12.00;99.90;;;;;;4980625;28;20025;-82
2023/09/20 00:47:47;;;;;;;3.13;1.50;;;11.90;99.90;;;;;;4980363;28;20045;-81
2023/09/20 00:50:14;;;;;;;2.75;1.45;;;11.90;99.90;;;;;;4969972;28;20068;-82
2023/09/20 00:52:46;;;;;;;3.17;1.70;;;11.80;99.90;;;;;;4956912;28;20035;-81
2023/09/20 00:55:15;;;;;;;3.75;1.85;;;11.70;99.90;;;;;;4956986;28;20038;-80
2023/09/20 00:57:45;;;;;;;2.90;1.70;;;11.70;99.90;;;;;;4956936;28;20066;-81
2023/09/20 01:00:27;;;;;;;2.72;1.70;;;11.70;99.90;;;;;;4980660;28;20035;-81
2023/09/20 01:02:55;;;;;;;2.45;1.70;;;11.70;99.90;;;;;;4953415;28;20034;-80
2023/09/20 01:05:22;;;;;;;2.13;1.60;;;11.70;99.90;;;;;;4978953;28;20031;-82
2023/09/20 01:07:59;;;;;;;1.85;1.52;;;11.70;99.90;;;;;;4968533;28;20058;-81
2023/09/20 01:10:26;;;;;;;2.28;1.65;;;11.60;99.90;;;;;;4957333;28;20600;-81
2023/09/20 01:12:59;;;;;;;2.40;1.77;;;11.60;99.90;;;;;;4976716;28;20033;-80
2023/09/20 01:15:27;;;;;;;1.65;1.55;;;11.60;99.90;;;;;;4956950;28;20035;-80
2023/09/20 01:17:57;;;;;;;1.85;1.58;;;11.60;99.90;;;;;;4973670;28;20035;-81
2023/09/20 01:20:24;;;;;;;2.90;1.27;;;11.60;99.90;;;;;;4954647;28;20069;-81
2023/09/20 01:22:54;;;;;;;2.45;1.20;;;11.60;99.90;;;;;;4975691;28;20082;-81
2023/09/20 01:25:24;;;;;;;2.38;1.63;;;11.60;99.90;;;;;;4943580;28;20191;-82
2023/09/20 01:27:52;;;;;;;2.03;1.52;;;11.60;99.90;;;;;;4972231;28;20110;-81
2023/09/20 01:30:18;;;;;;;3.15;1.50;;;11.60;99.90;;;;;;4973735;28;20030;-80
2023/09/20 01:32:44;;;;;;;3.03;1.30;;;11.60;99.90;;;;;;4970269;28;20056;-81
2023/09/20 01:35:10;;;;;;;4.38;1.63;;;11.70;99.90;;;;;;4974944;28;20105;-81
2023/09/20 01:37:37;;;;;;;2.38;1.48;;;11.70;99.90;;;;;;4975201;28;20043;-81
2023/09/20 01:40:14;;;;;;;1.65;1.55;;;11.80;99.90;;;;;;4975556;28;20085;-82
2023/09/20 01:42:42;;;;;;;2.00;1.52;;;11.80;99.90;;;;;;4957811;28;20050;-82
2023/09/20 01:45:14;;;;;;;1.80;1.30;;;11.80;99.90;;;;;;4975031;28;20022;-81
2023/09/20 01:47:45;;;;;;;1.52;1.42;;;11.80;99.90;;;;;;4957336;28;20027;-82
2023/09/20 01:50:20;;;;;;;3.17;1.70;;;11.80;99.90;;;;;;4974280;28;20085;-82
2023/09/20 01:53:06;;;;;;;2.33;1.23;;;11.80;99.90;;;;;;4952953;28;20037;-82
2023/09/20 01:55:32;;;;;;;2.42;1.60;;;11.80;99.90;;;;;;4970136;28;20418;-82
2023/09/20 01:57:59;;;;;;;2.83;1.77;;;11.80;99.90;;;;;;4959090;28;20089;-82
2023/09/20 02:00:36;;;;;;;2.15;1.40;;;11.90;99.90;;;;;;4957715;28;20035;-82
2023/09/20 02:03:19;;;;;;;2.22;1.30;;;11.80;99.90;;;;;;4955917;28;20042;-83
2023/09/20 02:05:49;;;;;;;2.92;1.60;;;11.80;99.90;;;;;;4970151;28;20026;-82
2023/09/20 02:08:15;;;;;;;2.00;1.10;;;11.80;99.90;;;;;;4959383;28;20125;-82
2023/09/20 02:10:41;;;;;;;3.85;1.92;;;11.90;99.90;;;;;;4972670;28;20632;-81
2023/09/20 02:13:08;;;;;;;3.40;1.50;;;11.80;99.90;;;;;;4972896;28;20105;-82
2023/09/20 02:15:35;;;;;;;2.17;1.60;;;11.90;99.90;;;;;;4962438;28;20117;-81
2023/09/20 02:18:05;;;;;;;3.17;1.42;;;11.80;99.90;;;;;;4965796;28;20527;-82
2023/09/20 02:20:36;;;;;;;4.03;1.77;;;11.80;99.90;;;;;;4973546;28;20042;-82
2023/09/20 02:23:04;;;;;;;2.13;1.60;;;11.80;99.90;;;;;;4960419;28;20039;-82
2023/09/20 02:25:30;;;;;;;3.00;1.50;;;11.80;99.90;;;;;;4972499;28;20082;-82
2023/09/20 02:27:58;;;;;;;1.60;1.50;;;11.80;99.90;;;;;;4964317;28;20058;-81
2023/09/20 02:30:28;;;;;;;2.38;1.70;;;11.70;99.90;;;;;;4975157;28;20031;-82
2023/09/20 02:32:57;;;;;;;2.42;1.27;;;11.70;99.90;;;;;;4958223;28;20037;-81
2023/09/20 02:35:30;;;;;;;3.28;1.75;;;11.70;99.90;;;;;;4978059;28;20283;-82
2023/09/20 02:37:59;;;;;;;3.60;1.75;;;11.70;99.90;;;;;;4977810;28;20058;-82
2023/09/20 02:40:26;;;;;;;2.88;1.70;;;11.70;99.90;;;;;;4979410;28;20049;-80
2023/09/20 02:42:58;;;;;;;2.35;1.60;;;11.70;99.90;;;;;;4964585;28;20050;-82
2023/09/20 02:45:27;;;;;;;3.08;1.65;;;11.60;99.90;;;;;;4956314;28;20031;-81
2023/09/20 02:47:54;;;;;;;3.70;1.98;;;11.60;99.90;;;;;;4956061;28;20026;-82
2023/09/20 02:50:23;;;;;;;2.05;1.67;;;11.60;99.90;;;;;;4957893;28;20038;-80
2023/09/20 02:52:52;;;;;;;4.50;2.03;;;11.60;99.90;;;;;;4965437;28;20027;-80
2023/09/20 02:55:21;;;;;;;1.73;1.58;;;11.50;99.90;;;;;;4976411;28;20510;-80
2023/09/20 02:57:52;;;;;;;4.30;1.90;;;11.50;99.90;;;;;;4973117;28;20031;-80
2023/09/20 03:00:21;;;;;;;2.85;1.80;;;11.40;99.90;;;;;;4976445;28;20037;-80
2023/09/20 03:02:53;;;;;;;3.80;2.25;;;11.40;99.90;;;;;;4972207;28;20038;-81
2023/09/20 03:05:24;;;;;;;2.17;1.70;;;11.40;99.90;;;;;;4955969;28;20061;-80
2023/09/20 03:07:53;;;;;;;3.55;2.28;;;11.40;99.90;;;;;;4951392;28;20054;-81
2023/09/20 03:10:22;;;;;;;3.40;1.90;;;11.40;99.90;;;;;;4968455;28;20027;-81
2023/09/20 03:12:51;;;;;;;2.67;1.70;;;11.30;99.90;;;;;;4955904;28;20059;-81
2023/09/20 03:15:23;;;;;;;1.85;1.50;;;11.30;99.90;;;;;;4953630;28;20562;-80
2023/09/20 03:17:56;;;;;;;3.30;2.35;;;11.30;99.90;;;;;;4958130;28;20038;-81
2023/09/20 03:20:26;;;;;;;4.40;1.73;;;11.40;99.90;;;;;;4958718;28;20038;-80
2023/09/20 03:23:03;;;;;;;1.77;1.67;;;11.40;99.90;;;;;;4959290;28;20065;-80
2023/09/20 03:25:38;;;;;;;2.05;1.40;;;11.40;99.90;;;;;;4966911;28;20022;-80
2023/09/20 03:28:13;;;;;;;2.40;2.00;;;11.40;99.90;;;;;;4972131;28;20041;-80
2023/09/20 03:30:39;;;;;;;2.85;1.73;;;11.40;99.90;;;;;;4973239;28;20589;-81
2023/09/20 03:33:11;;;;;;;2.60;1.80;;;11.40;99.90;;;;;;4955281;28;20204;-81
2023/09/20 03:35:39;;;;;;;6.45;3.25;;;11.40;99.90;;;;;;4955166;28;20068;-80
2023/09/20 03:38:05;;;;;;;6.65;2.28;;;11.40;99.90;;;;;;4957316;28;20499;-81
2023/09/20 03:40:32;;;;;;;2.53;2.33;;;11.40;99.90;;;;;;4955341;28;20045;-80
2023/09/20 03:43:07;;;;;;;3.78;2.40;;;11.40;99.90;;;;;;4957232;28;20045;-80
2023/09/20 03:45:33;;;;;;;2.45;2.08;;;11.50;99.90;;;;;;4972215;28;20023;-81
2023/09/20 03:48:01;;;;;;;2.05;1.85;;;11.50;99.90;;;;;;4937095;29;20035;-81
2023/09/20 03:50:28;;;;;;;2.25;2.05;;;11.40;99.90;;;;;;4946375;28;20459;-81
2023/09/20 03:52:53;;;;;;;3.25;2.38;;;11.50;99.90;;;;;;4970926;28;20023;-81
2023/09/20 03:55:20;;;;;;;3.10;2.80;;;11.50;99.90;;;;;;4953359;28;20068;-81
2023/09/20 03:57:46;;;;;;;2.65;2.25;;;11.50;99.90;;;;;;4970294;28;20042;-80
2023/09/20 04:00:16;;;;;;;2.80;1.90;;;11.40;99.90;;;;;;4960634;28;20038;-80
2023/09/20 04:02:45;;;;;;;2.63;2.10;;;11.40;99.90;;;;;;4955954;28;20403;-82
2023/09/20 04:05:15;;;;;;;3.17;2.00;;;11.50;99.90;;;;;;4961220;28;20065;-82
2023/09/20 04:07:44;;;;;;;2.78;2.08;;;11.50;99.90;;;;;;4957051;28;20106;-82
2023/09/20 04:10:11;;;;;;;2.40;2.05;;;11.40;99.90;;;;;;4953494;28;20110;-81
2023/09/20 04:12:37;;;;;;;2.55;2.28;;;11.30;99.90;;;;;;4971724;28;20357;-80
2023/09/20 04:15:10;;;;;;;2.60;2.40;;;11.30;99.90;;;;;;4954861;28;20035;-82
2023/09/20 04:17:36;;;;;;;2.60;1.90;;;11.30;99.90;;;;;;4958852;28;20030;-81
2023/09/20 04:20:07;;;;;;;3.20;2.13;;;11.20;99.90;;;;;;4971152;28;20141;-80
2023/09/20 04:22:36;;;;;;;3.38;2.10;;;11.20;99.90;;;;;;4980504;28;20387;-80
2023/09/20 04:25:04;;;;;;;2.53;1.98;;;11.10;99.90;;;;;;4974261;28;20112;-80
2023/09/20 04:27:32;;;;;;;4.20;2.15;;;11.10;99.90;;;;;;4974673;28;20023;-80
2023/09/20 04:29:57;;;;;;;2.10;1.90;;;11.10;99.90;;;;;;4958204;28;20039;-81
2023/09/20 04:32:24;;;;;;;3.30;2.10;;;11.00;99.90;;;;;;4960023;28;20073;-81
2023/09/20 04:34:53;;;;;;;2.40;2.15;;;11.00;99.90;;;;;;4958992;28;20042;-81
2023/09/20 04:37:22;;;;;;;3.38;1.85;;;11.00;99.90;;;;;;4970856;28;20526;-80
2023/09/20 04:39:49;;;;;;;2.22;1.88;;;11.00;99.90;;;;;;4957982;28;20027;-80
2023/09/20 04:42:17;;;;;;;2.17;1.98;;;10.90;99.90;;;;;;4960438;28;20097;-80
2023/09/20 04:44:43;;;;;;;2.47;2.03;;;10.90;99.90;;;;;;4957327;28;20022;-80
2023/09/20 04:47:14;;;;;;;3.42;2.33;;;10.90;99.90;;;;;;4959031;28;20089;-81
2023/09/20 04:49:40;;;;;;;4.32;2.08;;;11.00;99.90;;;;;;4957662;28;20039;-80
2023/09/20 04:52:10;;;;;;;3.10;2.78;;;11.00;99.90;;;;;;4941732;28;20031;-81
2023/09/20 04:54:37;;;;;;;4.43;2.85;;;11.10;99.90;;;;;;4957905;28;20035;-80
2023/09/20 04:57:06;;;;;;;3.90;2.70;;;11.00;99.90;;;;;;4961362;28;20035;-81
2023/09/20 04:59:32;;;;;;;4.13;2.70;;;11.10;99.90;;;;;;4957779;28;20034;-80
2023/09/20 05:01:59;;;;;;;3.20;2.90;;;11.00;99.90;;;;;;4958671;28;20039;-81
2023/09/20 05:04:26;;;;;;;3.58;2.40;;;11.10;99.90;;;;;;4962674;28;20034;-80
2023/09/20 05:06:53;;;;;;;3.90;2.63;;;11.10;99.90;;;;;;4959613;28;20027;-80
2023/09/20 05:09:19;;;;;;;2.88;2.50;;;11.10;99.90;;;;;;4941737;28;20031;-79
2023/09/20 05:11:45;;;;;;;2.65;2.22;;;11.10;99.90;;;;;;4959830;28;20031;-80
2023/09/20 05:14:11;;;;;;;3.50;2.90;;;11.10;99.90;;;;;;4955861;28;20050;-80
2023/09/20 05:16:37;;;;;;;4.45;3.45;;;11.10;99.90;;;;;;4956323;28;20491;-79
2023/09/20 05:19:03;;;;;;;5.57;2.92;;;11.10;99.90;;;;;;4956160;28;20129;-81
2023/09/20 05:21:29;;;;;;;4.72;3.03;;;11.10;99.90;;;;;;4959503;28;20507;-80
2023/09/20 05:23:55;;;;;;;4.45;2.65;;;11.10;99.90;;;;;;4959387;28;20039;-81
2023/09/20 05:26:22;;;;;;;4.80;2.50;;;11.20;99.90;;;;;;4963906;28;20047;-81
2023/09/20 05:28:48;;;;;;;4.60;2.72;;;11.10;99.90;;;;;;4959152;28;20030;-81
2023/09/20 05:31:15;;;;;;;3.22;2.72;;;11.10;99.90;;;;;;4978667;28;20114;-82
2023/09/20 05:33:41;;;;;;;5.28;2.80;;;11.20;99.90;;;;;;4961745;28;20114;-81
2023/09/20 05:36:08;;;;;;;4.20;3.10;;;11.20;99.90;;;;;;4977904;28;20031;-81
2023/09/20 05:38:34;;;;;;;4.03;2.45;;;11.20;99.90;;;;;;4979735;28;20088;-81
2023/09/20 05:41:00;;;;;;;3.85;2.72;;;11.20;99.90;;;;;;4977505;28;20030;-81
2023/09/20 05:43:26;;;;;;;4.72;2.97;;;11.30;99.90;;;;;;4977076;28;20031;-81
2023/09/20 05:45:51;;;;;;;2.60;2.40;;;11.30;99.90;;;;;;4978798;28;20323;-81
2023/09/20 05:48:17;;;;;;;3.65;2.58;;;11.30;99.90;;;;;;4979200;28;20030;-82
2023/09/20 05:50:43;;;;;;;3.53;2.90;;;11.30;99.90;;;;;;4980569;28;20792;-81
2023/09/20 05:53:13;;;;;;;3.38;2.92;;;11.30;99.90;;;;;;4980097;28;20089;-81
2023/09/20 05:55:40;;;;;;;3.30;2.97;;;11.40;99.90;;;;;;4979871;28;20642;-81
2023/09/20 05:58:06;;;;;;;3.08;2.67;;;11.40;99.90;;;;;;4977218;28;20041;-81
2023/09/20 06:00:35;;;;;;;4.18;2.92;;;11.50;99.90;;;;;;4978679;28;20515;-81
2023/09/20 06:03:04;;;;;;;5.47;3.00;;;11.40;99.90;;;;;;4976718;28;20034;-81
2023/09/20 06:05:37;;;;;;;5.82;2.78;;;11.50;99.90;;;;;;4978405;28;20114;-81
2023/09/20 06:08:06;;;;;;;4.65;3.28;;;11.50;99.90;;;;;;4976325;28;20034;-81
2023/09/20 06:10:32;;;;;;;4.45;2.83;;;11.50;99.90;;;;;;4972632;28;20157;-81
2023/09/20 06:12:58;;;;;;;6.30;3.50;;;11.50;99.90;;;;;;4974022;28;20023;-81
2023/09/20 06:15:24;;;;;;;3.05;2.75;;;11.60;99.90;;;;;;4977434;28;21033;-81
2023/09/20 06:17:51;;;;;;;4.70;3.13;;;11.60;99.90;;;;;;4975099;28;20031;-80
2023/09/20 06:20:21;;;;;;;5.32;2.85;;;11.70;99.90;;;;;;4978511;28;20118;-80
2023/09/20 06:22:51;;;;;;;2.95;2.17;;;11.70;99.90;;;;;;4975678;28;20034;-81
2023/09/20 06:25:21;;;;;;;3.20;2.72;;;11.80;99.90;;;;;;4976098;28;20042;-81
2023/09/20 06:27:50;;;;;;;4.32;2.80;;;11.90;99.90;;;;;;4975837;28;20015;-81
2023/09/20 06:30:17;;;;;;;3.38;2.72;;;11.90;99.90;;;;;;4975475;28;20090;-82
2023/09/20 06:32:44;;;;;;;2.72;2.38;;;12.00;99.90;;;;;;4979917;28;20042;-82
2023/09/20 06:35:11;;;;;;;4.03;2.67;;;12.10;99.90;;;;;;4959857;28;20049;-80
2023/09/20 06:37:40;;;;;;;4.57;2.78;;;12.20;99.90;;;;;;4975202;28;20035;-83
2023/09/20 06:40:22;;;;;;;3.58;2.83;;;12.40;99.90;;;;;;4963916;28;20038;-82
2023/09/20 06:42:51;;;;;;;4.10;2.90;;;12.60;99.90;;;;;;4963465;28;20031;-80
2023/09/20 06:45:18;;;;;;;3.38;2.53;;;12.70;99.90;;;;;;4965239;28;20050;-82
2023/09/20 06:47:44;;;;;;;5.43;2.50;;;13.00;99.90;;;;;;4973550;28;20570;-81
2023/09/20 06:50:12;;;;;;;3.38;2.38;;;13.30;99.90;;;;;;4961384;28;20134;-81
2023/09/20 06:52:41;;;;;;;6.07;2.53;;;13.50;99.90;;;;;;4973129;28;20046;-81
2023/09/20 06:55:09;;;;;;;4.43;2.33;;;13.80;99.90;;;;;;4970079;28;20437;-80
2023/09/20 06:57:35;;;;;;;2.33;2.13;;;13.90;99.90;;;;;;4961779;28;20039;-81
2023/09/20 07:00:16;;;;;;;6.55;2.47;;;13.80;99.90;;;;;;4971962;28;20126;-81
2023/09/20 07:02:42;;;;;;;2.40;2.20;;;13.70;99.90;;;;;;4972184;28;20047;-81
2023/09/20 07:05:09;;;;;;;3.08;2.53;;;13.60;99.90;;;;;;4973540;28;20055;-82
2023/09/20 07:07:35;;;;;;;7.25;2.70;;;13.50;99.90;;;;;;4978117;28;20074;-81
2023/09/20 07:10:05;;;;;;;4.28;2.70;;;13.60;99.90;;;;;;4962199;28;20035;-80
2023/09/20 07:12:33;;;;;;;7.03;3.70;;;13.60;99.90;;;;;;4971223;28;20038;-80
2023/09/20 07:15:21;;;;;;;4.68;3.15;;;14.00;99.90;;;;;;4955778;28;20057;-81
2023/09/20 07:17:53;;;;;;;5.28;2.35;;;14.40;99.90;;;;;;4969903;28;20038;-81
2023/09/20 07:20:20;;;;;;;3.67;1.92;;;14.90;99.90;;;;;;4957092;28;20062;-80
2023/09/20 07:22:47;;;;;;;4.57;1.92;;;15.30;99.90;;;;;;4969343;28;20145;-82
2023/09/20 07:25:19;;;;;;;2.67;1.88;;;15.70;99.90;;;;;;4974380;28;20105;-81
2023/09/20 07:27:49;;;;;;;3.00;2.03;;;16.00;99.90;;;;;;4959905;28;20030;-81
2023/09/20 07:30:20;;;;;;;3.15;1.75;;;16.30;99.90;;;;;;4973196;28;20543;-81
2023/09/20 07:32:46;;;;;;;2.00;1.80;;;16.50;99.90;;;;;;4971800;28;20113;-80
2023/09/20 07:37:58;;;;;;;2.67;1.90;;;17.00;99.90;;;;;;4950498;28;20043;-80
2023/09/20 07:40:31;;;;;;;4.53;1.73;;;17.10;99.90;;;;;;4972355;28;20114;-80
2023/09/20 07:43:04;;;;;;;2.45;1.90;;;17.10;99.90;;;;;;4968684;28;20030;-81
2023/09/20 07:45:38;;;;;;;2.67;1.85;;;17.30;99.90;;;;;;4971724;28;20066;-80
2023/09/20 07:48:11;;;;;;;2.07;1.70;;;17.50;99.90;;;;;;4954534;28;20082;-79
2023/09/20 07:50:51;;;;;;;2.33;1.90;;;17.70;99.90;;;;;;4970851;28;20447;-79
2023/09/20 07:53:18;;;;;;;4.00;1.88;;;17.90;99.90;;;;;;4959864;28;20049;-81
2023/09/20 07:55:55;;;;;;;2.97;1.42;;;18.00;99.90;;;;;;4973370;28;20039;-80
2023/09/20 07:58:27;;;;;;;1.70;1.13;;;18.20;99.90;;;;;;4972002;28;20058;-81
2023/09/20 08:00:56;;;;;;;2.70;1.50;;;18.20;99.90;;;;;;4948838;28;20031;-81
2023/09/20 08:03:23;;;;;;;1.60;1.35;;;18.10;99.90;;;;;;4973903;28;20030;-79
2023/09/20 08:05:50;;;;;;;2.22;1.25;;;18.20;99.90;;;;;;4974768;28;20026;-79
2023/09/20 08:08:16;;;;;;;1.95;1.40;;;18.20;99.90;;;;;;4976888;28;20031;-81
2023/09/20 08:10:44;;;;;;;1.42;1.33;;;18.20;99.90;;;;;;4974972;28;20039;-79
2023/09/20 08:13:11;;;;;;;1.40;1.30;;;18.30;99.90;;;;;;4974027;28;20034;-80
2023/09/20 08:15:43;;;;;;;3.33;1.25;;;18.40;99.90;;;;;;4973296;28;20034;-81
2023/09/20 08:20:55;;;;;;;2.45;1.95;;;18.60;99.90;;;;;;4969609;28;20114;-80
2023/09/20 09:02:14;;;;;;;4.10;1.27;;;19.00;99.90;;;;;;4981753;28;20097;-81
2023/09/20 09:04:53;;;;;;;1.88;1.17;;;19.00;99.90;;;;;;4984339;28;20053;-80
2023/09/20 09:07:25;;;;;;;1.38;1.25;;;19.00;99.90;;;;;;4979807;28;20058;-81
2023/09/20 09:09:52;;;;;;;1.70;1.25;;;19.00;99.90;;;;;;4973747;28;20031;-81
2023/09/20 09:12:18;;;;;;;1.95;1.05;;;19.00;99.90;;;;;;4981779;28;20041;-80
2023/09/20 09:14:48;;;;;;;1.52;1.13;;;19.00;99.90;;;;;;4977943;28;20487;-80
2023/09/20 09:17:14;;;;;;;1.80;1.40;;;19.00;99.90;;;;;;4978022;28;20432;-78
2023/09/20 09:19:40;;;;;;;2.25;1.17;;;18.90;99.90;;;;;;4980529;28;20026;-80
2023/09/20 09:22:07;;;;;;;1.05;0.95;;;18.90;99.90;;;;;;4979467;28;20458;-80
2023/09/20 09:24:47;;;;;;;1.20;0.88;;;18.90;99.90;;;;;;4976268;28;20030;-80
2023/09/20 09:27:15;;;;;;;5.13;3.92;;;18.80;99.90;;;;;;4974084;28;20553;-80
2023/09/20 09:29:44;;;;;;;4.25;1.70;;;18.90;99.90;;;;;;4977944;28;20067;-80
2023/09/20 09:32:10;;;;;;;5.50;1.85;;;18.90;99.90;;;;;;4976973;28;20027;-80
2023/09/20 09:34:41;;;;;;;2.22;1.13;;;18.90;99.90;;;;;;4975301;28;20042;-80
2023/09/20 09:37:07;;;;;;;2.30;1.02;;;19.00;99.90;;;;;;4975393;28;20086;-80
2023/09/20 09:39:33;;;;;;;5.18;1.35;;;19.00;99.90;;;;;;4978952;28;20027;-80
2023/09/20 09:42:00;;;;;;;4.47;1.33;;;19.00;99.90;;;;;;4976425;28;20457;-80
2023/09/20 09:44:26;;;;;;;1.98;1.10;;;19.10;99.90;;;;;;4976983;28;20074;-80
2023/09/20 09:46:54;;;;;;;1.40;1.10;;;19.20;99.90;;;;;;4978292;28;20031;-80
2023/09/20 09:49:20;;;;;;;3.15;1.20;;;19.30;99.90;;;;;;4979170;28;20119;-79
2023/09/20 09:51:53;;;;;;;4.85;1.70;;;19.40;99.90;;;;;;4980386;28;20050;-80
2023/09/20 09:54:39;;;;;;;3.30;1.38;;;19.60;99.90;;;;;;4977765;28;20045;-80
2023/09/20 09:57:23;;;;;;;1.77;0.88;;;19.70;99.90;;;;;;4978013;28;20077;-80
2023/09/20 09:59:51;;;;;;;1.63;1.00;;;19.70;99.90;;;;;;4976983;28;20045;-80
2023/09/20 10:02:22;;;;;;;2.03;1.25;;;19.80;99.90;;;;;;4974899;28;20034;-78
2023/09/20 10:04:55;;;;;;;1.38;1.02;;;19.90;99.90;;;;;;4978782;28;20022;-80
2023/09/20 10:07:48;;;;;;;4.32;1.10;;;20.00;99.90;;;;;;4979019;28;20509;-80
2023/09/20 10:10:16;;;;;;;2.08;1.10;;;20.10;99.90;;;;;;4971876;28;20134;-79
2023/09/20 10:12:47;;;;;;;1.95;1.27;;;20.10;99.90;;;;;;4976699;28;20093;-80
2023/09/20 10:15:15;;;;;;;3.72;1.10;;;20.20;99.90;;;;;;4977819;28;20491;-80
2023/09/20 10:17:48;;;;;;;4.13;0.93;;;20.30;99.90;;;;;;4977983;28;20054;-80
2023/09/20 10:20:16;;;;;;;1.83;1.05;;;20.30;99.90;;;;;;4976312;28;20046;-80
2023/09/20 10:22:45;;;;;;;1.67;1.00;;;20.40;99.90;;;;;;4977822;28;20069;-80
2023/09/20 10:25:34;;;;;;;2.30;1.23;;;20.40;99.90;;;;;;4976369;28;20038;-80
2023/09/20 10:28:09;;;;;;;1.27;1.00;;;20.40;99.90;;;;;;4971232;28;20031;-80
2023/09/20 10:30:56;;;;;;;1.10;1.00;;;20.50;99.90;;;;;;4974607;28;20067;-79
2023/09/20 10:33:41;;;;;;;1.30;1.15;;;20.60;99.90;;;;;;4959457;28;20039;-80
2023/09/20 10:36:06;;;;;;;1.40;1.10;;;20.60;99.90;;;;;;4972566;28;20041;-80
2023/09/20 10:38:33;;;;;;;2.92;1.00;;;20.70;99.90;;;;;;4976944;28;20038;-80
2023/09/20 10:41:03;;;;;;;1.95;1.02;;;20.70;99.90;;;;;;4976564;28;20114;-79
2023/09/20 10:43:35;;;;;;;4.30;1.20;;;20.70;99.90;;;;;;4981847;28;20706;-80
2023/09/20 10:46:07;;;;;;;7.82;2.10;;;20.80;99.90;;;;;;4976456;28;20062;-80
2023/09/20 10:48:33;;;;;;;2.47;1.40;;;20.80;99.90;;;;;;4973144;28;20045;-80
2023/09/20 10:50:59;;;;;;;1.67;1.00;;;20.90;99.90;;;;;;4974842;28;20077;-79
2023/09/20 10:53:44;;;;;;;2.03;0.90;;;20.90;99.90;;;;;;4974130;28;20038;-79
2023/09/20 10:56:12;;;;;;;3.95;1.45;;;20.90;99.90;;;;;;4976019;28;20066;-79
2023/09/20 10:58:42;;;;;;;0.90;0.90;;;21.00;99.90;;;;;;4978573;28;20097;-79
2023/09/20 11:01:09;;;;;;;2.63;1.00;;;21.00;99.90;;;;;;4974703;28;20038;-80
2023/09/20 11:03:56;;;;;;;2.78;1.00;;;21.10;99.90;;;;;;4967319;28;20077;-79
2023/09/20 11:06:50;;;;;;;1.52;0.98;;;21.20;99.90;;;;;;4976001;28;20084;-80
2023/09/20 11:09:16;;;;;;;2.17;1.15;;;21.30;99.90;;;;;;4969033;28;20031;-79
2023/09/20 11:12:08;;;;;;;2.22;1.17;;;21.40;99.90;;;;;;4972678;28;20053;-80
2023/09/20 11:14:35;;;;;;;1.13;1.02;;;21.50;99.90;;;;;;4976727;28;20047;-79
2023/09/20 11:17:02;;;;;;;3.15;0.98;;;21.50;99.90;;;;;;4976035;28;20031;-79
2023/09/20 11:19:29;;;;;;;1.80;1.20;;;21.60;99.90;;;;;;4976675;28;20095;-80
2023/09/20 11:21:56;;;;;;;2.25;1.05;;;21.60;99.90;;;;;;4978727;28;20026;-80
2023/09/20 11:24:24;;;;;;;6.97;1.90;;;21.70;99.90;;;;;;4973806;28;20042;-80
2023/09/20 11:26:55;;;;;;;2.13;0.93;;;21.70;99.90;;;;;;4974147;28;20050;-79
2023/09/20 11:29:21;;;;;;;2.88;1.30;;;21.80;99.90;;;;;;4978586;28;20035;-80
2023/09/20 11:31:50;;;;;;;2.35;1.20;;;21.80;98.60;;;;;;4977792;28;20344;-79
2023/09/20 11:34:19;;;;;;;1.85;0.98;;;21.90;99.90;;;;;;4979641;28;20039;-80
2023/09/20 11:36:46;;;;;;;1.42;0.98;;;21.90;98.40;;;;;;4976012;28;20030;-80
2023/09/20 11:39:14;;;;;;;1.25;1.02;;;21.90;99.90;;;;;;4978481;28;20042;-79
2023/09/20 11:41:46;;;;;;;1.60;1.20;;;22.00;99.90;;;;;;4973473;28;20027;-80
2023/09/20 11:44:12;;;;;;;1.95;0.90;;;22.00;99.90;;;;;;4973251;28;20031;-80
2023/09/20 11:46:38;;;;;;;1.55;1.00;;;22.20;99.90;;;;;;4972761;28;20062;-80
2023/09/20 11:49:06;;;;;;;1.55;1.30;;;22.20;99.90;;;;;;4975495;28;20038;-78
2023/09/20 11:51:35;;;;;;;1.63;1.27;;;22.30;99.90;;;;;;4971753;28;20055;-80
2023/09/20 11:54:03;;;;;;;1.70;1.25;;;22.30;95.70;;;;;;4971831;28;20083;-79
2023/09/20 11:56:32;;;;;;;3.92;1.23;;;22.40;97.00;;;;;;4973971;28;20098;-80
2023/09/20 11:59:02;;;;;;;3.45;1.25;;;22.50;97.60;;;;;;4956550;28;20414;-79
2023/09/20 12:01:29;;;;;;;0.98;0.88;;;22.60;98.50;;;;;;4956880;28;20039;-79
2023/09/20 12:03:56;;;;;;;2.42;1.10;;;22.60;98.00;;;;;;4976614;28;20535;-79
2023/09/20 12:06:24;;;;;;;1.67;1.17;;;22.60;97.30;;;;;;4960111;28;20080;-79
2023/09/20 12:08:54;;;;;;;1.67;1.40;;;22.70;97.80;;;;;;4971419;28;20092;-80
2023/09/20 12:11:20;;;;;;;1.33;1.20;;;22.70;95.60;;;;;;4973119;28;20480;-79
2023/09/20 12:13:47;;;;;;;2.30;1.05;;;22.70;95.40;;;;;;4978010;28;20049;-79
2023/09/20 12:16:14;;;;;;;1.75;1.20;;;22.70;97.40;;;;;;4975758;28;20035;-79
2023/09/20 12:18:44;;;;;;;1.23;1.00;;;22.70;95.50;;;;;;4978908;28;20141;-79
2023/09/20 12:21:10;;;;;;;3.03;1.35;;;22.80;98.00;;;;;;4974413;28;20035;-80
2023/09/20 12:23:38;;;;;;;1.80;1.20;;;22.90;96.40;;;;;;4975943;28;20023;-80
2023/09/20 12:26:05;;;;;;;1.70;1.30;;;23.00;95.50;;;;;;4975791;28;20022;-79
2023/09/20 12:28:31;;;;;;;1.60;1.15;;;23.00;97.70;;;;;;4966386;28;20272;-79
2023/09/20 12:30:58;;;;;;;1.20;1.00;;;23.00;97.20;;;;;;4966776;28;20015;-79
2023/09/20 12:33:27;;;;;;;1.30;1.20;;;23.00;96.70;;;;;;4969212;28;20628;-79
2023/09/20 12:35:54;;;;;;;1.67;1.20;;;22.90;93.60;;;;;;4960326;28;20057;-77
2023/09/20 12:38:20;;;;;;;1.20;1.02;;;23.00;96.60;;;;;;4968104;28;20042;-80
2023/09/20 12:40:47;;;;;;;1.50;1.10;;;22.90;96.90;;;;;;4952622;28;20069;-78
2023/09/20 12:43:17;;;;;;;1.42;1.10;;;22.90;95.00;;;;;;4965656;28;20035;-79
2023/09/20 12:45:43;;;;;;;2.10;1.20;;;22.90;95.00;;;;;;4964274;28;20030;-79
2023/09/20 12:48:10;;;;;;;1.20;1.10;;;22.80;95.10;;;;;;4970317;28;20027;-77
2023/09/20 12:50:37;;;;;;;4.30;1.40;;;22.90;94.90;;;;;;4972955;28;20470;-78
2023/09/20 12:53:08;;;;;;;3.47;1.10;;;22.80;91.90;;;;;;4974813;28;20173;-78
2023/09/20 12:55:38;;;;;;;1.27;1.17;;;22.70;94.60;;;;;;4970048;28;20034;-79
2023/09/20 12:58:06;;;;;;;3.95;1.35;;;22.70;95.80;;;;;;4955918;28;20034;-80
2023/09/20 13:00:39;;;;;;;2.35;1.20;;;22.70;94.50;;;;;;4971947;28;20054;-80
2023/09/20 13:03:07;;;;;;;2.42;1.15;;;22.70;95.10;;;;;;4979949;28;20092;-81
2023/09/20 13:05:33;;;;;;;1.83;1.10;;;22.70;95.80;;;;;;4978141;28;20025;-81
2023/09/20 13:07:59;;;;;;;12.98;1.70;;;22.70;94.60;;;;;;4972505;28;20124;-79
2023/09/20 13:10:26;;;;;;;1.65;1.02;;;22.60;92.40;;;;;;4963475;28;20046;-80
2023/09/20 13:12:53;;;;;;;2.42;1.02;;;22.60;92.90;;;;;;4974943;28;20037;-81
2023/09/20 13:15:19;;;;;;;1.27;1.17;;;22.60;95.20;;;;;;4980384;28;20034;-81
2023/09/20 13:17:48;;;;;;;1.75;1.08;;;22.50;95.70;;;;;;4975240;28;20117;-79
2023/09/20 13:20:15;;;;;;;2.35;1.20;;;22.50;94.10;;;;;;4977865;28;20035;-80
2023/09/20 13:22:42;;;;;;;2.05;1.38;;;22.40;93.80;;;;;;4975704;28;20038;-82
2023/09/20 13:25:09;;;;;;;2.55;1.55;;;22.30;94.90;;;;;;4959212;28;20174;-80
2023/09/20 13:27:35;;;;;;;2.92;1.67;;;22.30;95.10;;;;;;4978622;28;20476;-82
2023/09/20 13:30:08;;;;;;;6.93;1.60;;;22.20;91.40;;;;;;4978103;28;20074;-80
2023/09/20 13:32:35;;;;;;;7.53;1.67;;;22.10;92.60;;;;;;4959042;28;20112;-81
2023/09/20 13:35:02;;;;;;;3.13;1.50;;;22.10;90.70;;;;;;4972952;28;20589;-80
2023/09/20 13:37:28;;;;;;;3.17;1.30;;;22.00;91.00;;;;;;4938394;28;20073;-81
2023/09/20 13:39:54;;;;;;;1.92;1.13;;;22.00;92.80;;;;;;4977456;28;20054;-81
2023/09/20 13:42:20;;;;;;;3.60;1.35;;;21.90;94.60;;;;;;4977874;28;20045;-81